Time;durP1;ratioP1;P1;durP2;ratioP2;P2;SDS_P1;SDS_P2;PMS_P1;PMS_P2;Temp;Humidity;BMP_temperature;BMP_pressure;BME280_temperature;BME280_humidity;BME280_pressure;Samples;Min_cycle;Max_cycle;Signal;HPM_P1;HPM_P2
2023/06/20 00:00:55;;;;;;;8.20;6.70;;;20.90;1.00;;;;;;4973693;28;20180;-80
2023/06/20 00:03:21;;;;;;;8.67;7.17;;;20.80;1.00;;;;;;4973648;28;20271;-80
2023/06/20 00:05:46;;;;;;;7.50;6.53;;;20.80;1.00;;;;;;4973634;28;20649;-80
2023/06/20 00:08:12;;;;;;;10.33;7.30;;;20.80;1.00;;;;;;4975334;28;20172;-80
2023/06/20 00:10:37;;;;;;;7.80;6.80;;;20.80;1.00;;;;;;4977007;28;20215;-80
2023/06/20 00:13:03;;;;;;;9.37;7.07;;;20.80;1.00;;;;;;4977176;28;20180;-81
2023/06/20 00:15:29;;;;;;;7.70;6.90;;;20.80;1.00;;;;;;4975570;28;20318;-81
2023/06/20 00:17:59;;;;;;;8.13;7.00;;;20.70;1.00;;;;;;4977022;28;20200;-81
2023/06/20 00:20:25;;;;;;;10.27;7.63;;;20.60;1.00;;;;;;4976992;28;20234;-82
2023/06/20 00:22:51;;;;;;;8.47;6.90;;;20.60;1.00;;;;;;4976525;28;20425;-81
2023/06/20 00:25:17;;;;;;;7.93;7.00;;;20.50;1.00;;;;;;4976921;28;20234;-81
2023/06/20 00:27:42;;;;;;;6.67;5.83;;;20.40;1.00;;;;;;4976763;28;20222;-81
2023/06/20 00:30:08;;;;;;;8.57;5.87;;;20.40;1.00;;;;;;4976678;28;20478;-81
2023/06/20 00:32:33;;;;;;;7.63;6.83;;;20.40;1.00;;;;;;4976655;28;20268;-83
2023/06/20 00:34:59;;;;;;;8.50;6.73;;;20.30;1.00;;;;;;4979034;28;20178;-82
2023/06/20 00:37:25;;;;;;;9.60;7.50;;;20.30;1.00;;;;;;4995695;28;20222;-81
2023/06/20 00:39:51;;;;;;;8.70;7.77;;;20.30;1.00;;;;;;4996092;28;20179;-81
2023/06/20 00:42:18;;;;;;;9.80;6.27;;;20.30;1.00;;;;;;4995907;28;20430;-81
2023/06/20 00:44:44;;;;;;;7.53;6.30;;;20.40;1.00;;;;;;4994668;28;20269;-81
2023/06/20 00:47:10;;;;;;;9.13;7.13;;;20.30;1.00;;;;;;4995856;28;20414;-79
2023/06/20 00:49:36;;;;;;;8.50;7.70;;;20.30;1.00;;;;;;4995693;28;20480;-79
2023/06/20 00:52:02;;;;;;;10.50;7.63;;;20.20;1.00;;;;;;4995442;28;20201;-80
2023/06/20 00:54:29;;;;;;;11.00;7.53;;;20.20;1.00;;;;;;4995746;28;20403;-80
2023/06/20 00:56:54;;;;;;;7.57;6.87;;;20.10;1.00;;;;;;4995715;28;20432;-80
2023/06/20 00:59:20;;;;;;;9.10;7.47;;;20.10;1.00;;;;;;4995659;28;20410;-80
2023/06/20 01:01:45;;;;;;;7.93;6.17;;;20.10;1.00;;;;;;5010662;28;20273;-81
2023/06/20 01:04:12;;;;;;;9.53;7.27;;;20.00;1.00;;;;;;4995589;28;20260;-80
2023/06/20 01:07:00;;;;;;;8.30;6.80;;;20.00;1.00;;;;;;4995175;28;20200;-80
2023/06/20 01:10:08;;;;;;;8.00;7.10;;;19.90;1.00;;;;;;4995399;28;20475;-80
2023/06/20 01:12:57;;;;;;;8.20;6.43;;;19.90;1.00;;;;;;4995178;28;20426;-81
2023/06/20 01:15:31;;;;;;;10.07;7.10;;;19.80;1.00;;;;;;4995144;28;20488;-80
2023/06/20 01:18:25;;;;;;;8.87;7.20;;;19.80;1.00;;;;;;4995307;28;20817;-80
2023/06/20 01:20:55;;;;;;;9.43;7.23;;;19.80;1.00;;;;;;4994902;28;20414;-79
2023/06/20 01:23:30;;;;;;;8.37;7.30;;;19.80;1.00;;;;;;4994894;28;20504;-79
2023/06/20 01:26:23;;;;;;;9.10;7.17;;;19.70;1.00;;;;;;4995151;28;20424;-79
2023/06/20 01:29:15;;;;;;;9.33;7.10;;;19.70;1.00;;;;;;4994925;28;20414;-79
2023/06/20 01:31:48;;;;;;;8.67;6.80;;;19.60;1.00;;;;;;4994973;28;20493;-79
2023/06/20 01:34:18;;;;;;;7.83;7.00;;;19.60;1.00;;;;;;4995007;28;20522;-79
2023/06/20 01:36:49;;;;;;;6.33;5.73;;;19.50;1.00;;;;;;4994589;28;20416;-80
2023/06/20 01:39:22;;;;;;;8.07;6.77;;;19.50;1.00;;;;;;4994717;28;20450;-80
2023/06/20 01:41:49;;;;;;;8.70;7.27;;;19.50;1.00;;;;;;4994875;28;20777;-79
2023/06/20 01:44:17;;;;;;;9.13;6.90;;;19.50;1.00;;;;;;4994806;28;20480;-79
2023/06/20 01:46:46;;;;;;;8.60;7.70;;;19.50;1.00;;;;;;4994719;28;20423;-79
2023/06/20 01:49:12;;;;;;;9.10;7.63;;;19.50;1.00;;;;;;4994620;28;20457;-80
2023/06/20 01:51:39;;;;;;;8.27;6.47;;;19.40;1.00;;;;;;4994229;28;20448;-80
2023/06/20 01:54:05;;;;;;;11.47;8.20;;;19.40;1.00;;;;;;4994605;28;20914;-80
2023/06/20 01:56:32;;;;;;;8.37;6.13;;;19.40;2.80;;;;;;4994648;28;20447;-80
2023/06/20 01:59:00;;;;;;;9.23;5.83;;;19.40;9.20;;;;;;4994533;28;20438;-80
2023/06/20 02:01:26;;;;;;;9.40;7.10;;;19.30;9.30;;;;;;4994416;28;20455;-81
2023/06/20 02:03:54;;;;;;;8.43;7.40;;;19.30;3.90;;;;;;4994442;28;20423;-80
2023/06/20 02:06:21;;;;;;;8.30;7.50;;;19.30;8.50;;;;;;4994453;28;20777;-80
2023/06/20 02:08:48;;;;;;;9.77;7.70;;;19.20;10.70;;;;;;5009003;28;20762;-79
2023/06/20 02:11:14;;;;;;;9.17;7.50;;;19.20;13.60;;;;;;4994375;28;20433;-79
2023/06/20 02:13:40;;;;;;;9.27;6.60;;;19.20;21.20;;;;;;4994264;28;20412;-79
2023/06/20 02:16:08;;;;;;;10.23;8.47;;;19.20;28.40;;;;;;4994027;28;20475;-79
2023/06/20 02:18:34;;;;;;;9.77;8.13;;;19.20;29.90;;;;;;4994204;28;20423;-79
2023/06/20 02:21:09;;;;;;;10.40;7.57;;;19.20;24.80;;;;;;4992863;28;20445;-79
2023/06/20 02:23:38;;;;;;;9.20;7.73;;;19.10;25.60;;;;;;4993711;28;20184;-81
2023/06/20 02:26:09;;;;;;;10.70;8.87;;;19.10;28.10;;;;;;4993936;28;20481;-81
2023/06/20 02:28:57;;;;;;;9.23;7.50;;;19.10;25.50;;;;;;4994026;28;20425;-81
2023/06/20 02:31:26;;;;;;;8.73;7.83;;;19.00;25.30;;;;;;4993843;28;20953;-81
2023/06/20 02:33:56;;;;;;;10.40;8.13;;;19.00;23.30;;;;;;4993951;28;20426;-81
2023/06/20 02:36:25;;;;;;;9.30;7.43;;;19.00;22.10;;;;;;4993482;28;20409;-81
2023/06/20 02:38:55;;;;;;;8.83;7.30;;;18.90;23.90;;;;;;4993817;28;20776;-81
2023/06/20 02:41:21;;;;;;;9.97;7.23;;;18.90;30.40;;;;;;4993828;28;20940;-81
2023/06/20 02:43:47;;;;;;;8.93;8.00;;;18.80;54.00;;;;;;4993816;28;20418;-81
2023/06/20 02:46:50;;;;;;;8.57;7.70;;;18.80;79.40;;;;;;4993796;28;20726;-81
2023/06/20 02:49:26;;;;;;;10.00;8.43;;;18.80;89.40;;;;;;4993707;28;20465;-81
2023/06/20 02:52:12;;;;;;;9.47;8.03;;;18.90;79.00;;;;;;4993472;28;20819;-81
2023/06/20 02:54:57;;;;;;;10.97;8.77;;;18.80;83.90;;;;;;4993690;28;20406;-81
2023/06/20 02:57:25;;;;;;;8.43;7.53;;;18.80;75.50;;;;;;4993636;28;20505;-81
2023/06/20 02:59:58;;;;;;;9.03;8.10;;;18.80;74.80;;;;;;4993639;28;20408;-80
2023/06/20 03:02:29;;;;;;;10.20;7.47;;;18.80;73.00;;;;;;4993713;28;20768;-82
2023/06/20 03:04:59;;;;;;;8.63;7.70;;;18.80;72.00;;;;;;4993661;28;20960;-81
2023/06/20 03:07:28;;;;;;;8.40;7.27;;;18.80;78.10;;;;;;4993139;28;20410;-81
2023/06/20 03:09:55;;;;;;;8.70;7.80;;;18.70;89.10;;;;;;4993463;28;20573;-81
2023/06/20 03:12:21;;;;;;;11.17;9.00;;;18.70;91.60;;;;;;4993559;28;20414;-80
2023/06/20 03:14:47;;;;;;;8.73;7.80;;;18.70;99.90;;;;;;4993290;28;20457;-80
2023/06/20 03:17:13;;;;;;;9.47;8.20;;;18.70;99.90;;;;;;5007464;28;20420;-79
2023/06/20 03:19:39;;;;;;;8.70;7.80;;;18.70;99.90;;;;;;4993429;28;20708;-79
2023/06/20 03:22:04;;;;;;;11.40;8.63;;;18.90;99.90;;;;;;4993008;28;20506;-79
2023/06/20 03:24:30;;;;;;;8.80;7.90;;;19.00;99.90;;;;;;4993492;28;20180;-80
2023/06/20 03:26:55;;;;;;;13.23;8.53;;;19.00;85.20;;;;;;4993417;28;20249;-79
2023/06/20 03:29:21;;;;;;;11.57;9.43;;;18.90;89.30;;;;;;4993367;28;20219;-80
2023/06/20 03:31:46;;;;;;;9.80;7.90;;;18.90;99.30;;;;;;4993391;28;20181;-79
2023/06/20 03:34:12;;;;;;;8.93;7.70;;;18.90;99.90;;;;;;4993357;28;20382;-79
2023/06/20 03:36:38;;;;;;;10.00;8.87;;;18.90;99.90;;;;;;4992916;28;20528;-81
2023/06/20 03:39:03;;;;;;;10.10;9.10;;;18.90;99.90;;;;;;4993258;28;20176;-80
2023/06/20 03:41:29;;;;;;;12.20;9.60;;;18.90;99.90;;;;;;4993292;28;20416;-79
2023/06/20 03:43:54;;;;;;;8.93;8.03;;;19.00;99.90;;;;;;4996635;28;20174;-79
2023/06/20 03:46:20;;;;;;;11.30;8.23;;;19.00;99.90;;;;;;4997041;28;20173;-79
2023/06/20 03:48:45;;;;;;;7.33;6.53;;;19.00;99.90;;;;;;4995678;28;20186;-79
2023/06/20 03:51:11;;;;;;;11.40;9.67;;;19.10;99.90;;;;;;4996631;28;20181;-78
2023/06/20 03:53:36;;;;;;;10.20;8.20;;;19.10;99.90;;;;;;4996719;28;20530;-78
2023/06/20 03:56:05;;;;;;;7.90;6.93;;;19.10;99.90;;;;;;4996909;28;20412;-79
2023/06/20 03:58:30;;;;;;;9.30;7.53;;;19.20;99.90;;;;;;4996812;28;20642;-79
2023/06/20 04:00:56;;;;;;;9.20;7.73;;;19.20;99.90;;;;;;4996768;28;20418;-81
2023/06/20 04:03:21;;;;;;;9.90;8.90;;;19.20;99.90;;;;;;4996774;28;20176;-78
2023/06/20 04:05:51;;;;;;;9.37;7.47;;;19.30;99.90;;;;;;4996533;28;20437;-79
2023/06/20 04:08:16;;;;;;;9.13;8.20;;;19.30;99.90;;;;;;4996247;28;20183;-78
2023/06/20 04:10:42;;;;;;;9.27;7.77;;;19.30;99.90;;;;;;4995274;28;21028;-79
2023/06/20 04:13:07;;;;;;;9.33;8.07;;;19.40;99.90;;;;;;4996521;28;20249;-80
2023/06/20 04:15:33;;;;;;;10.43;8.90;;;19.50;99.90;;;;;;4996335;28;20311;-80
2023/06/20 04:17:58;;;;;;;9.70;8.70;;;19.60;99.90;;;;;;4996362;28;20191;-80
2023/06/20 04:20:24;;;;;;;11.63;8.20;;;19.60;99.90;;;;;;4995140;28;20211;-80
2023/06/20 04:22:49;;;;;;;12.23;9.27;;;19.70;99.90;;;;;;5011028;28;20186;-80
2023/06/20 04:25:16;;;;;;;9.80;8.60;;;19.70;99.90;;;;;;5011345;28;20181;-79
2023/06/20 04:27:41;;;;;;;10.13;8.37;;;19.80;99.90;;;;;;4996352;28;20273;-79
2023/06/20 04:30:08;;;;;;;9.00;8.10;;;19.80;99.90;;;;;;5011245;28;20518;-79
2023/06/20 04:32:34;;;;;;;9.40;8.50;;;19.80;94.80;;;;;;4996276;28;20509;-81
2023/06/20 04:35:00;;;;;;;9.60;8.20;;;19.90;81.90;;;;;;4996187;28;20867;-79
2023/06/20 04:37:29;;;;;;;8.70;7.80;;;19.90;56.40;;;;;;4995687;28;20177;-79
2023/06/20 04:39:56;;;;;;;8.80;7.57;;;19.90;66.50;;;;;;4996125;28;20262;-82
2023/06/20 04:42:21;;;;;;;9.87;8.53;;;19.90;74.40;;;;;;4995970;28;20427;-81
2023/06/20 04:44:48;;;;;;;9.50;6.80;;;20.00;80.90;;;;;;4995967;28;20416;-83
2023/06/20 04:47:14;;;;;;;10.70;8.00;;;20.00;85.20;;;;;;4995916;28;20261;-81
2023/06/20 04:49:40;;;;;;;8.97;7.57;;;20.10;69.10;;;;;;4995700;28;20559;-81
2023/06/20 04:52:06;;;;;;;8.20;6.40;;;20.10;52.30;;;;;;4995515;28;20202;-81
2023/06/20 04:54:31;;;;;;;8.80;7.17;;;20.20;49.20;;;;;;4995779;28;20433;-81
2023/06/20 04:56:57;;;;;;;8.47;6.40;;;20.20;59.30;;;;;;4994545;28;20423;-81
2023/06/20 04:59:22;;;;;;;7.70;6.03;;;20.30;65.90;;;;;;4995785;28;20172;-80
2023/06/20 05:01:51;;;;;;;7.90;6.80;;;20.40;26.60;;;;;;4995595;28;20168;-81
2023/06/20 05:04:19;;;;;;;9.07;6.70;;;20.40;7.20;;;;;;4995596;28;20641;-81
2023/06/20 05:06:48;;;;;;;8.13;5.90;;;20.50;1.00;;;;;;4995087;28;20923;-80
2023/06/20 05:09:14;;;;;;;7.13;6.10;;;20.50;1.00;;;;;;4995341;28;20470;-80
2023/06/20 05:11:39;;;;;;;7.00;5.73;;;20.60;1.00;;;;;;4995478;28;20415;-80
2023/06/20 05:14:05;;;;;;;8.40;5.37;;;20.70;1.00;;;;;;4995402;28;20196;-81
2023/06/20 05:16:30;;;;;;;6.70;4.87;;;20.70;1.00;;;;;;4991375;28;20682;-80
2023/06/20 05:18:56;;;;;;;7.10;5.10;;;20.80;1.00;;;;;;5008029;28;20636;-80
2023/06/20 05:21:21;;;;;;;6.40;4.70;;;20.90;1.00;;;;;;4983387;28;20175;-80
2023/06/20 05:23:47;;;;;;;6.33;4.57;;;21.00;1.00;;;;;;4983682;28;20172;-80
2023/06/20 05:26:12;;;;;;;6.20;5.23;;;21.10;1.00;;;;;;4987720;28;20266;-82
2023/06/20 05:28:41;;;;;;;6.73;4.33;;;21.20;1.00;;;;;;4982802;28;20195;-81
2023/06/20 05:31:09;;;;;;;4.70;4.03;;;21.30;1.00;;;;;;4982704;28;20550;-81
2023/06/20 05:33:36;;;;;;;6.30;4.07;;;21.50;1.00;;;;;;4983344;28;20442;-81
2023/06/20 05:36:02;;;;;;;4.83;4.40;;;21.60;99.90;;;;;;4984465;28;20430;-81
2023/06/20 05:38:31;;;;;;;5.80;4.80;;;21.70;99.90;;;;;;4983087;28;20420;-81
2023/06/20 05:40:59;;;;;;;5.80;4.57;;;21.90;99.90;;;;;;4983230;28;20169;-80
2023/06/20 05:43:25;;;;;;;5.77;4.10;;;22.10;1.00;;;;;;4982020;28;20421;-80
2023/06/20 05:45:51;;;;;;;6.07;4.60;;;22.30;1.00;;;;;;4981311;28;20438;-79
2023/06/20 05:48:16;;;;;;;22.67;5.77;;;22.50;1.00;;;;;;4993677;28;20206;-80
2023/06/20 05:50:42;;;;;;;5.70;4.23;;;22.70;1.00;;;;;;4993694;28;20222;-81
2023/06/20 05:53:07;;;;;;;5.77;5.00;;;22.80;99.90;;;;;;4993395;28;20575;-83
2023/06/20 05:55:33;;;;;;;8.93;4.97;;;23.00;99.90;;;;;;4993448;28;20260;-81
2023/06/20 05:57:59;;;;;;;5.43;4.20;;;23.10;99.90;;;;;;4993633;28;20223;-81
2023/06/20 06:00:25;;;;;;;5.50;3.90;;;23.30;99.90;;;;;;4993533;28;20431;-81
2023/06/20 06:02:50;;;;;;;6.53;4.70;;;23.40;99.90;;;;;;4992381;28;20185;-81
2023/06/20 06:05:16;;;;;;;6.30;4.10;;;23.50;1.00;;;;;;4993028;28;20248;-81
2023/06/20 06:07:41;;;;;;;4.33;3.93;;;23.70;91.60;;;;;;4993175;28;20262;-81
2023/06/20 06:10:08;;;;;;;6.23;3.80;;;23.80;1.00;;;;;;4993473;28;20211;-81
2023/06/20 06:12:36;;;;;;;4.80;2.90;;;23.90;99.90;;;;;;4993384;28;20170;-81
2023/06/20 06:15:03;;;;;;;4.77;3.33;;;24.10;1.00;;;;;;4957843;28;1029182;-82
2023/06/20 06:17:30;;;;;;;5.27;3.93;;;24.20;1.00;;;;;;4994164;28;20204;-82
2023/06/20 06:19:56;;;;;;;3.77;3.13;;;24.50;99.90;;;;;;4994165;28;20425;-81
2023/06/20 06:22:21;;;;;;;4.40;3.43;;;24.70;22.50;;;;;;4993802;28;20406;-82
2023/06/20 06:24:47;;;;;;;4.40;3.77;;;24.90;1.00;;;;;;4992708;28;20174;-81
2023/06/20 06:27:12;;;;;;;4.40;3.70;;;25.00;1.00;;;;;;4993905;28;20187;-81
2023/06/20 06:29:39;;;;;;;5.73;3.90;;;25.30;99.90;;;;;;4993838;28;20254;-82
2023/06/20 06:32:05;;;;;;;3.50;3.10;;;25.60;99.90;;;;;;4993964;28;20172;-82
2023/06/20 06:34:31;;;;;;;6.00;3.60;;;25.80;99.90;;;;;;4993970;28;20464;-82
2023/06/20 06:36:56;;;;;;;6.37;3.60;;;25.90;99.90;;;;;;4993573;28;20442;-81
2023/06/20 06:39:22;;;;;;;3.67;3.27;;;26.10;99.90;;;;;;4992712;28;20179;-82
2023/06/20 06:41:51;;;;;;;7.80;3.77;;;26.20;99.80;;;;;;4993902;28;20168;-82
2023/06/20 06:44:17;;;;;;;3.13;2.83;;;26.40;48.50;;;;;;4992696;28;20168;-81
2023/06/20 06:46:43;;;;;;;3.63;2.80;;;26.50;63.90;;;;;;4993801;28;20418;-82
2023/06/20 06:49:09;;;;;;;3.27;2.97;;;26.60;44.60;;;;;;4993645;28;20455;-82
2023/06/20 06:51:36;;;;;;;5.67;3.60;;;26.80;62.70;;;;;;4993436;28;20213;-82
2023/06/20 06:54:01;;;;;;;3.73;2.90;;;27.00;39.40;;;;;;4993709;28;20167;-82
2023/06/20 06:56:27;;;;;;;4.50;3.50;;;27.10;10.40;;;;;;4993595;28;20430;-81
2023/06/20 06:58:57;;;;;;;3.93;2.57;;;27.20;1.00;;;;;;4993625;28;20175;-81
2023/06/20 07:01:23;;;;;;;5.30;3.80;;;27.20;1.00;;;;;;4992392;28;20187;-81
2023/06/20 07:03:48;;;;;;;4.10;3.60;;;27.30;1.00;;;;;;4993678;28;20411;-81
2023/06/20 07:06:14;;;;;;;3.90;3.00;;;27.20;1.00;;;;;;4993284;28;20523;-82
2023/06/20 07:08:39;;;;;;;4.00;3.50;;;27.20;1.00;;;;;;4993635;28;20182;-84
2023/06/20 07:11:08;;;;;;;5.00;2.97;;;27.10;1.00;;;;;;4994012;28;20211;-81
2023/06/20 07:13:33;;;;;;;4.40;3.40;;;27.00;1.00;;;;;;4993443;28;20175;-81
2023/06/20 07:15:59;;;;;;;3.50;3.10;;;27.00;1.00;;;;;;4993359;28;20526;-81
2023/06/20 07:18:24;;;;;;;4.17;3.07;;;27.10;1.00;;;;;;4996369;28;20178;-82
2023/06/20 07:20:50;;;;;;;4.40;3.87;;;27.20;1.00;;;;;;4997224;28;20591;-82
2023/06/20 07:23:15;;;;;;;5.27;3.00;;;27.40;1.00;;;;;;4997423;28;20207;-82
2023/06/20 07:25:41;;;;;;;4.10;2.90;;;27.60;1.00;;;;;;4997426;28;20211;-82
2023/06/20 07:28:06;;;;;;;3.90;3.50;;;27.80;1.00;;;;;;4997350;28;20222;-82
2023/06/20 07:30:32;;;;;;;4.30;3.37;;;28.00;1.00;;;;;;4997317;28;20203;-82
2023/06/20 07:32:58;;;;;;;3.73;3.00;;;28.30;1.00;;;;;;4997305;28;20659;-82
2023/06/20 07:35:23;;;;;;;3.73;3.17;;;28.80;1.00;;;;;;4997292;28;20239;-82
2023/06/20 07:37:49;;;;;;;5.87;3.87;;;29.00;1.00;;;;;;4996866;28;20624;-81
2023/06/20 07:40:14;;;;;;;4.00;2.90;;;29.30;1.00;;;;;;4997128;28;20656;-81
2023/06/20 07:42:40;;;;;;;3.87;3.13;;;29.70;1.00;;;;;;4997099;28;20266;-82
2023/06/20 07:45:06;;;;;;;5.50;2.73;;;30.10;1.00;;;;;;4996778;28;20548;-83
2023/06/20 07:47:34;;;;;;;3.50;3.20;;;30.50;1.00;;;;;;4995872;28;20262;-83
2023/06/20 07:50:00;;;;;;;3.60;3.30;;;30.80;1.00;;;;;;4996941;28;20474;-83
2023/06/20 07:52:27;;;;;;;3.30;2.90;;;31.00;1.00;;;;;;4996592;28;20407;-83
2023/06/20 07:54:52;;;;;;;3.80;3.50;;;31.30;1.00;;;;;;4996758;28;20179;-83
2023/06/20 07:57:18;;;;;;;3.50;2.77;;;31.40;1.00;;;;;;4996777;28;20421;-83
2023/06/20 07:59:43;;;;;;;3.53;2.67;;;31.50;1.00;;;;;;4996864;28;20174;-82
2023/06/20 08:02:09;;;;;;;4.43;4.03;;;31.50;1.00;;;;;;4996707;28;20171;-83
2023/06/20 08:04:34;;;;;;;4.77;3.30;;;31.60;1.00;;;;;;4996774;28;20506;-82
2023/06/20 08:07:00;;;;;;;3.30;3.00;;;31.80;1.00;;;;;;4996379;28;20233;-82
2023/06/20 08:09:25;;;;;;;4.07;3.43;;;32.00;1.00;;;;;;4996520;28;20207;-82
2023/06/20 08:11:51;;;;;;;4.10;3.30;;;32.30;1.00;;;;;;4996565;28;20226;-81
2023/06/20 08:14:18;;;;;;;4.13;3.20;;;32.60;1.00;;;;;;4996569;28;20172;-84
2023/06/20 08:16:43;;;;;;;3.70;3.40;;;32.80;1.00;;;;;;4996361;28;20575;-82
2023/06/20 08:19:09;;;;;;;3.73;3.27;;;33.10;1.00;;;;;;4996515;28;20445;-86
2023/06/20 08:21:34;;;;;;;3.80;3.50;;;33.20;1.00;;;;;;4996061;28;20528;-83
2023/06/20 08:24:00;;;;;;;4.77;3.27;;;33.20;1.00;;;;;;4995115;28;20196;-83
2023/06/20 08:26:26;;;;;;;6.00;3.63;;;33.30;1.00;;;;;;4996426;28;20187;-82
2023/06/20 08:28:52;;;;;;;4.30;3.90;;;33.20;1.00;;;;;;4983147;28;20316;-82
2023/06/20 08:31:17;;;;;;;4.30;3.90;;;33.10;1.00;;;;;;4976918;28;20431;-88
2023/06/20 08:33:43;;;;;;;4.20;3.80;;;33.10;1.00;;;;;;4976750;28;20223;-84
2023/06/20 08:36:11;;;;;;;4.13;3.37;;;33.20;1.00;;;;;;4976325;28;20184;-86
2023/06/20 08:38:38;;;;;;;3.30;2.83;;;33.10;1.00;;;;;;4976600;28;20168;-86
2023/06/20 08:41:07;;;;;;;3.60;3.30;;;32.90;1.00;;;;;;4976708;28;20782;-83
2023/06/20 08:43:34;;;;;;;4.57;3.57;;;32.90;1.00;;;;;;4976534;28;20486;-85
2023/06/20 08:45:59;;;;;;;3.63;3.33;;;33.00;1.00;;;;;;4976536;28;20772;-86
2023/06/20 08:48:25;;;;;;;3.80;3.30;;;33.10;1.00;;;;;;4976585;28;20424;-88
2023/06/20 08:50:51;;;;;;;4.40;4.00;;;33.10;1.00;;;;;;4976115;28;20208;-85
2023/06/20 08:53:18;;;;;;;4.27;3.80;;;32.90;1.00;;;;;;4976421;28;20530;-87
2023/06/20 08:55:44;;;;;;;4.00;3.60;;;32.50;1.00;;;;;;4976369;28;20443;-82
2023/06/20 08:58:11;;;;;;;4.17;3.77;;;32.20;1.00;;;;;;4976339;28;20475;-86
2023/06/20 09:00:38;;;;;;;4.00;3.70;;;32.10;1.00;;;;;;4976307;28;20408;-83
2023/06/20 09:03:04;;;;;;;4.37;3.80;;;31.90;1.00;;;;;;4976195;28;20772;-81
2023/06/20 09:05:40;;;;;;;4.67;4.20;;;31.70;1.00;;;;;;4975656;28;20422;-82
2023/06/20 09:08:06;;;;;;;5.87;3.97;;;31.40;1.00;;;;;;4976175;28;20761;-82
2023/06/20 09:10:33;;;;;;;4.83;3.80;;;31.30;1.00;;;;;;4975927;28;20995;-83
2023/06/20 09:12:58;;;;;;;4.80;3.43;;;31.20;1.00;;;;;;4975882;28;20411;-82
2023/06/20 09:15:25;;;;;;;4.90;4.07;;;31.10;1.00;;;;;;4974447;28;20471;-82
2023/06/20 09:17:53;;;;;;;5.80;5.07;;;31.10;1.00;;;;;;4975915;28;20192;-82
2023/06/20 09:20:20;;;;;;;3.80;3.43;;;31.10;1.00;;;;;;4974231;28;20951;-82
2023/06/20 09:22:45;;;;;;;3.93;3.57;;;31.10;1.00;;;;;;4975831;28;20412;-86
2023/06/20 09:25:18;;;;;;;4.87;3.77;;;31.30;1.00;;;;;;4974426;28;20443;-84
2023/06/20 09:27:44;;;;;;;4.07;3.67;;;31.50;1.00;;;;;;4975729;28;20240;-82
2023/06/20 09:30:09;;;;;;;4.00;3.50;;;31.50;1.00;;;;;;4975558;28;20562;-82
2023/06/20 09:32:37;;;;;;;7.50;4.27;;;31.50;1.00;;;;;;4975565;28;20267;-83
2023/06/20 09:35:05;;;;;;;6.50;4.50;;;31.40;1.00;;;;;;4975551;28;20268;-82
2023/06/20 09:37:41;;;;;;;4.47;4.03;;;31.50;1.00;;;;;;4975233;28;20502;-82
2023/06/20 09:40:12;;;;;;;5.20;3.70;;;31.40;1.00;;;;;;4973514;28;20423;-85
2023/06/20 09:42:38;;;;;;;4.53;4.13;;;31.20;1.00;;;;;;4975581;28;20526;-87
2023/06/20 09:45:05;;;;;;;4.80;4.30;;;31.20;1.00;;;;;;4975448;28;20410;-85
2023/06/20 09:47:30;;;;;;;5.20;4.70;;;31.50;1.00;;;;;;4975415;28;20416;-85
2023/06/20 09:49:59;;;;;;;4.37;3.97;;;31.80;1.00;;;;;;4975115;28;20534;-85
2023/06/20 09:52:39;;;;;;;5.00;4.50;;;32.20;1.00;;;;;;4974968;28;20203;-81
2023/06/20 09:55:09;;;;;;;5.00;3.77;;;32.70;1.00;;;;;;4975252;28;20491;-82
2023/06/20 09:57:39;;;;;;;5.23;4.67;;;33.00;1.00;;;;;;4975222;28;20519;-82
2023/06/20 10:00:14;;;;;;;4.77;4.00;;;33.30;1.00;;;;;;4975221;28;20823;-86
2023/06/20 10:02:45;;;;;;;4.80;4.30;;;33.60;1.00;;;;;;4974100;28;20416;-81
2023/06/20 10:05:19;;;;;;;5.27;4.87;;;33.90;1.00;;;;;;4974802;28;20433;-82
2023/06/20 10:07:46;;;;;;;4.83;4.37;;;33.90;1.00;;;;;;4975020;28;20516;-82
2023/06/20 10:10:14;;;;;;;4.83;4.37;;;33.40;1.00;;;;;;4974832;28;20558;-82
2023/06/20 10:12:41;;;;;;;6.13;5.53;;;32.50;1.00;;;;;;4974889;28;20510;-83
2023/06/20 10:15:08;;;;;;;6.27;5.00;;;31.80;1.00;;;;;;4974544;28;20796;-81
2023/06/20 10:17:39;;;;;;;5.97;5.47;;;31.10;1.00;;;;;;4974742;28;20431;-82
2023/06/20 10:20:09;;;;;;;5.50;5.00;;;30.60;1.00;;;;;;4974473;28;20510;-81
2023/06/20 10:22:41;;;;;;;4.93;4.37;;;30.10;1.00;;;;;;4974723;28;20420;-81
2023/06/20 10:25:15;;;;;;;5.10;4.60;;;29.90;1.00;;;;;;4973472;28;20829;-81
2023/06/20 10:27:52;;;;;;;8.80;4.60;;;29.60;1.00;;;;;;4974686;28;20424;-80
2023/06/20 10:30:43;;;;;;;5.87;4.90;;;29.30;1.00;;;;;;4974271;28;20478;-81
2023/06/20 10:33:10;;;;;;;5.13;4.67;;;29.10;1.00;;;;;;4974443;28;20408;-81
2023/06/20 10:35:46;;;;;;;6.73;6.10;;;29.00;1.00;;;;;;4974120;28;20427;-82
2023/06/20 10:38:12;;;;;;;6.17;3.97;;;28.90;1.00;;;;;;4974460;28;20462;-81
2023/06/20 10:40:37;;;;;;;5.03;4.57;;;28.60;1.00;;;;;;4973250;28;20775;-81
2023/06/20 10:43:16;;;;;;;5.60;5.07;;;28.60;1.00;;;;;;4974356;28;20180;-81
2023/06/20 10:45:53;;;;;;;5.50;5.03;;;28.50;1.00;;;;;;4974499;28;20173;-81
2023/06/20 10:48:20;;;;;;;4.77;4.27;;;28.40;1.00;;;;;;4974350;28;20502;-80
2023/06/20 10:50:46;;;;;;;5.77;5.23;;;28.20;1.00;;;;;;4973676;28;20550;-81
2023/06/20 10:53:13;;;;;;;6.40;5.03;;;28.00;1.00;;;;;;4974261;28;20503;-82
2023/06/20 10:55:39;;;;;;;6.43;5.00;;;27.90;1.00;;;;;;4974318;28;20184;-81
2023/06/20 10:58:04;;;;;;;10.53;5.40;;;27.90;1.00;;;;;;4974027;28;20965;-81
2023/06/20 11:00:30;;;;;;;5.70;4.50;;;27.90;1.00;;;;;;4972879;28;20648;-82
2023/06/20 11:02:56;;;;;;;5.33;4.73;;;28.10;1.00;;;;;;4974228;28;20191;-84
2023/06/20 11:05:29;;;;;;;5.40;4.47;;;28.20;1.00;;;;;;4987761;28;20191;-86
2023/06/20 11:07:56;;;;;;;5.30;4.80;;;28.30;1.00;;;;;;4993593;28;20222;-82
2023/06/20 11:10:26;;;;;;;5.63;4.30;;;28.10;1.00;;;;;;4993440;28;20817;-87
2023/06/20 11:12:52;;;;;;;7.13;4.47;;;28.10;1.00;;;;;;4993477;28;20415;-87
2023/06/20 11:15:31;;;;;;;5.87;4.40;;;28.00;1.00;;;;;;4993204;28;20463;-82
2023/06/20 11:18:01;;;;;;;4.70;4.20;;;28.10;1.00;;;;;;4993374;28;20262;-81
2023/06/20 11:20:27;;;;;;;5.33;4.83;;;28.30;1.00;;;;;;4991947;28;20423;-82
2023/06/20 11:22:55;;;;;;;6.20;4.90;;;28.40;1.00;;;;;;4993411;28;20477;-82
2023/06/20 11:25:32;;;;;;;4.90;4.40;;;28.50;1.00;;;;;;4993432;28;20409;-82
2023/06/20 11:28:15;;;;;;;5.47;3.90;;;28.60;1.00;;;;;;4992059;28;20426;-88
2023/06/20 11:30:43;;;;;;;5.80;4.90;;;28.80;1.00;;;;;;4992079;28;20478;-83
2023/06/20 11:33:09;;;;;;;5.10;4.23;;;28.90;1.00;;;;;;4993235;28;20422;-83
2023/06/20 11:35:42;;;;;;;8.23;4.93;;;29.00;1.00;;;;;;4991628;28;20423;-83
2023/06/20 11:38:22;;;;;;;5.47;4.97;;;29.20;1.00;;;;;;4993254;28;20425;-82
2023/06/20 11:40:59;;;;;;;6.07;4.70;;;29.30;1.00;;;;;;4992081;28;20775;-87
2023/06/20 11:43:33;;;;;;;6.57;4.53;;;29.40;1.00;;;;;;4993143;28;20411;-87
2023/06/20 11:46:00;;;;;;;4.90;4.40;;;29.50;1.00;;;;;;4993019;28;20410;-86
2023/06/20 11:48:25;;;;;;;5.30;4.80;;;29.70;1.00;;;;;;4993091;28;20540;-84
2023/06/20 11:50:59;;;;;;;5.27;4.70;;;29.80;1.00;;;;;;4992782;28;20553;-83
2023/06/20 11:53:33;;;;;;;4.40;4.00;;;29.90;1.00;;;;;;4993272;28;20176;-84
2023/06/20 11:56:02;;;;;;;5.50;5.00;;;30.10;1.00;;;;;;4993235;28;20407;-87
2023/06/20 11:58:35;;;;;;;5.17;4.77;;;30.30;1.00;;;;;;4992880;28;20449;-82
2023/06/20 12:01:09;;;;;;;5.47;4.83;;;30.40;1.00;;;;;;4993074;28;20422;-83
2023/06/20 12:03:36;;;;;;;4.73;4.33;;;30.50;1.00;;;;;;4994435;28;20442;-83
2023/06/20 12:06:01;;;;;;;5.23;4.73;;;30.50;1.00;;;;;;4996291;28;20434;-82
2023/06/20 12:08:33;;;;;;;6.53;5.90;;;30.50;1.00;;;;;;4996674;28;20422;-84
2023/06/20 12:11:02;;;;;;;5.20;4.70;;;30.30;1.00;;;;;;4996567;28;20573;-84
2023/06/20 12:13:29;;;;;;;5.80;5.30;;;30.30;1.00;;;;;;4995052;28;20415;-83
2023/06/20 12:15:56;;;;;;;6.50;5.03;;;30.30;1.00;;;;;;4982222;28;20458;-83
2023/06/20 12:18:21;;;;;;;5.60;5.10;;;30.30;1.00;;;;;;4977057;28;20930;-84
2023/06/20 12:20:47;;;;;;;5.57;4.60;;;30.40;1.00;;;;;;4976721;28;20408;-84
2023/06/20 12:23:13;;;;;;;6.70;6.03;;;30.40;1.00;;;;;;4984306;28;20178;-83
2023/06/20 12:25:39;;;;;;;6.77;5.97;;;30.40;1.00;;;;;;4996254;28;20587;-83
2023/06/20 12:28:04;;;;;;;6.70;6.10;;;30.40;1.00;;;;;;4996231;28;20427;-84
2023/06/20 12:30:30;;;;;;;6.50;5.90;;;30.40;1.00;;;;;;4996338;28;20212;-82
2023/06/20 12:32:58;;;;;;;5.80;5.20;;;30.40;1.00;;;;;;4996445;28;20248;-87
2023/06/20 12:35:25;;;;;;;5.73;5.23;;;30.40;1.00;;;;;;4995885;28;20427;-87
2023/06/20 12:37:50;;;;;;;5.33;4.83;;;30.40;1.00;;;;;;4996193;28;20422;-83
2023/06/20 12:40:16;;;;;;;5.80;5.30;;;30.60;1.00;;;;;;4996102;28;20419;-82
2023/06/20 12:42:42;;;;;;;6.63;5.93;;;30.60;1.00;;;;;;4994723;28;20590;-83
2023/06/20 12:45:08;;;;;;;6.10;5.53;;;30.80;1.00;;;;;;4995941;28;20645;-82
2023/06/20 12:47:33;;;;;;;7.73;5.73;;;30.90;1.00;;;;;;4995861;28;20183;-84
2023/06/20 12:50:02;;;;;;;6.30;5.80;;;30.90;1.00;;;;;;4995298;28;20451;-88
2023/06/20 12:52:28;;;;;;;6.50;5.87;;;30.90;1.00;;;;;;4995825;28;20182;-83
2023/06/20 12:54:54;;;;;;;7.47;5.40;;;30.80;1.00;;;;;;4995783;28;20415;-82
2023/06/20 12:57:20;;;;;;;6.23;5.70;;;30.80;1.00;;;;;;4995792;28;20178;-82